createdAt,value
2018-06-18T00:00:25.271Z,99.9
2018-06-18T00:01:25.135Z,99.9
2018-06-18T00:02:25.001Z,99.9
2018-06-18T00:03:25.110Z,99.9
2018-06-18T00:04:24.991Z,99.9
2018-06-18T00:05:24.871Z,99.9
2018-06-18T00:06:25.163Z,99.9
2018-06-18T00:07:25.020Z,99.9
2018-06-18T00:08:25.903Z,99.9
2018-06-18T00:09:25.774Z,99.9
2018-06-18T00:10:29.257Z,99.9
2018-06-18T00:11:30.136Z,99.9
2018-06-18T00:12:30.221Z,99.9
2018-06-18T00:13:30.085Z,99.9
2018-06-18T00:14:29.969Z,99.9
2018-06-18T00:15:29.832Z,99.9
2018-06-18T00:16:30.352Z,99.9
2018-06-18T00:17:30.240Z,99.9
2018-06-18T00:18:30.110Z,99.9
2018-06-18T00:19:32.757Z,99.9
2018-06-18T00:20:32.634Z,99.9
2018-06-18T00:21:32.515Z,99.9
2018-06-18T00:22:33.368Z,99.9
2018-06-18T00:23:33.478Z,99.9
2018-06-18T00:24:33.373Z,99.9
2018-06-18T00:25:33.236Z,99.9
2018-06-18T00:26:36.107Z,99.9
2018-06-18T00:27:35.995Z,99.9
2018-06-18T00:28:36.075Z,99.9
2018-06-18T00:29:35.939Z,99.9
2018-06-18T00:30:38.998Z,99.9
2018-06-18T00:31:38.887Z,99.9
2018-06-18T00:32:38.767Z,99.9
2018-06-18T00:33:38.622Z,99.9
2018-06-18T00:34:41.289Z,99.9
2018-06-18T00:35:41.169Z,99.9
2018-06-18T00:36:41.684Z,99.9
2018-06-18T00:37:41.547Z,99.9
2018-06-18T00:38:43.981Z,99.9
2018-06-18T00:39:43.857Z,99.9
2018-06-18T00:40:43.740Z,99.9
2018-06-18T00:41:43.624Z,99.9
2018-06-18T00:42:43.495Z,99.9
2018-06-18T00:43:43.353Z,99.9
2018-06-18T00:44:43.212Z,99.9
2018-06-18T00:45:43.071Z,99.9
2018-06-18T00:46:43.355Z,99.9
2018-06-18T00:47:45.809Z,99.9
2018-06-18T00:48:46.673Z,99.9
2018-06-18T00:49:46.544Z,99.9
2018-06-18T00:50:46.422Z,99.9
2018-06-18T00:51:46.299Z,99.9
2018-06-18T00:52:46.181Z,99.9
2018-06-18T00:53:46.287Z,99.9
2018-06-18T00:54:46.150Z,99.9
2018-06-18T00:55:46.032Z,99.9
2018-06-18T00:56:46.330Z,99.9
2018-06-18T00:57:47.266Z,99.9
2018-06-18T00:58:47.361Z,99.9
2018-06-18T00:59:47.220Z,99.9
2018-06-18T01:00:47.073Z,99.9
2018-06-18T01:01:46.991Z,99.9
2018-06-18T01:02:46.867Z,99.9
2018-06-18T01:03:46.997Z,99.9
2018-06-18T01:04:46.855Z,99.9
2018-06-18T01:05:46.728Z,99.9
2018-06-18T01:06:47.014Z,99.9
2018-06-18T01:07:47.104Z,99.9
2018-06-18T01:08:46.963Z,99.9
2018-06-18T01:09:46.821Z,99.9
2018-06-18T01:10:46.686Z,99.9
2018-06-18T01:11:46.592Z,99.9
2018-06-18T01:12:46.467Z,99.9
2018-06-18T01:13:46.322Z,99.9
2018-06-18T01:14:46.192Z,99.9
2018-06-18T01:15:46.063Z,99.9
2018-06-18T01:16:49.284Z,99.9
2018-06-18T01:17:49.147Z,99.9
2018-06-18T01:18:49.236Z,99.9
2018-06-18T01:19:49.112Z,99.9
2018-06-18T01:20:48.977Z,99.9
2018-06-18T01:21:48.867Z,99.9
2018-06-18T01:22:48.736Z,99.9
2018-06-18T01:23:48.617Z,99.9
2018-06-18T01:24:48.527Z,99.9
2018-06-18T01:25:48.379Z,99.9
2018-06-18T01:26:49.199Z,99.9
2018-06-18T01:27:49.063Z,99.9
2018-06-18T01:28:49.210Z,99.9
2018-06-18T01:29:49.097Z,99.9
2018-06-18T01:30:48.962Z,99.9
2018-06-18T01:31:48.843Z,99.9
2018-06-18T01:32:48.928Z,99.9
2018-06-18T01:33:48.767Z,99.9
2018-06-18T01:34:48.616Z,99.9
2018-06-18T01:35:48.478Z,99.9
2018-06-18T01:36:48.774Z,99.9
2018-06-18T01:37:51.645Z,99.9
2018-06-18T01:38:51.722Z,99.9
2018-06-18T01:39:51.584Z,99.9
2018-06-18T01:40:54.202Z,99.9
2018-06-18T01:41:54.084Z,99.9
2018-06-18T01:42:53.950Z,99.9
2018-06-18T01:43:53.834Z,99.9
2018-06-18T01:44:53.715Z,99.9
2018-06-18T01:45:53.568Z,99.9
2018-06-18T01:46:53.865Z,99.9
2018-06-18T01:47:53.805Z,99.9
2018-06-18T01:48:53.681Z,99.9
2018-06-18T01:49:53.553Z,99.9
2018-06-18T01:50:53.636Z,99.9
2018-06-18T01:51:56.222Z,99.9
2018-06-18T01:52:56.094Z,99.9
2018-06-18T01:53:55.974Z,99.9
2018-06-18T01:54:55.837Z,99.9
2018-06-18T01:55:55.948Z,99.9
2018-06-18T01:56:56.211Z,99.9
2018-06-18T01:57:56.074Z,99.9
2018-06-18T01:58:55.952Z,99.9
2018-06-18T01:59:56.037Z,99.9
2018-06-18T02:00:55.915Z,99.9
2018-06-18T02:01:55.789Z,99.9
2018-06-18T02:02:55.866Z,99.9
2018-06-18T02:03:55.727Z,99.9
2018-06-18T02:04:55.591Z,99.9
2018-06-18T02:05:55.469Z,99.9
2018-06-18T02:06:56.005Z,99.9
2018-06-18T02:07:55.902Z,99.9
2018-06-18T02:08:55.764Z,99.9
2018-06-18T02:09:55.617Z,99.9
2018-06-18T02:10:55.471Z,99.9
2018-06-18T02:11:55.345Z,99.9
2018-06-18T02:12:55.432Z,99.9
2018-06-18T02:13:55.289Z,99.9
2018-06-18T02:14:55.153Z,99.9
2018-06-18T02:15:55.020Z,99.9
2018-06-18T02:16:56.296Z,99.9
2018-06-18T02:17:56.410Z,99.9
2018-06-18T02:18:56.280Z,99.9
2018-06-18T02:19:56.146Z,99.9
2018-06-18T02:20:56.256Z,99.9
2018-06-18T02:21:56.148Z,99.9
2018-06-18T02:22:56.014Z,99.9
2018-06-18T02:23:59.798Z,99.9
2018-06-18T02:24:59.695Z,99.9
2018-06-18T02:25:59.550Z,99.9
2018-06-18T02:26:59.816Z,99.9
2018-06-18T02:28:00.667Z,99.9
2018-06-18T02:29:00.516Z,99.9
2018-06-18T02:30:00.383Z,99.9
2018-06-18T02:31:00.506Z,99.9
2018-06-18T02:32:00.410Z,99.9
2018-06-18T02:33:00.291Z,99.9
2018-06-18T02:34:01.173Z,99.9
2018-06-18T02:35:03.644Z,99.9
2018-06-18T02:36:03.534Z,99.9
2018-06-18T02:37:03.844Z,99.9
2018-06-18T02:38:03.695Z,99.9
2018-06-18T02:39:05.552Z,99.9
2018-06-18T02:40:05.417Z,99.9
2018-06-18T02:41:05.294Z,99.9
2018-06-18T02:42:05.197Z,99.9
2018-06-18T02:43:05.300Z,99.9
2018-06-18T02:44:05.186Z,99.9
2018-06-18T02:45:05.045Z,99.9
2018-06-18T02:46:07.600Z,99.9
2018-06-18T02:47:10.933Z,99.9
2018-06-18T02:48:10.809Z,99.9
2018-06-18T02:49:10.696Z,99.9
2018-06-18T02:50:10.572Z,99.9
2018-06-18T02:51:10.466Z,99.9
2018-06-18T02:52:10.568Z,99.9
2018-06-18T02:53:10.460Z,99.9
2018-06-18T02:54:10.330Z,99.9
2018-06-18T02:55:10.224Z,99.9
2018-06-18T02:56:10.099Z,99.9
2018-06-18T02:57:13.390Z,99.9
2018-06-18T02:58:13.326Z,99.9
2018-06-18T02:59:13.198Z,99.9
2018-06-18T03:00:13.073Z,99.9
2018-06-18T03:01:12.954Z,99.9
2018-06-18T03:02:12.828Z,99.9
2018-06-18T03:03:15.614Z,99.9
2018-06-18T03:04:15.718Z,99.9
2018-06-18T03:05:19.199Z,99.9
2018-06-18T03:06:19.082Z,99.9
2018-06-18T03:07:19.431Z,99.9
2018-06-18T03:08:19.335Z,99.9
2018-06-18T03:09:22.190Z,99.9
2018-06-18T03:10:22.089Z,99.9
2018-06-18T03:11:21.959Z,99.9
2018-06-18T03:12:21.856Z,99.9
2018-06-18T03:13:21.968Z,99.9
2018-06-18T03:14:21.861Z,99.9
2018-06-18T03:15:21.728Z,99.9
2018-06-18T03:16:21.605Z,99.9
2018-06-18T03:17:21.874Z,99.9
2018-06-18T03:18:21.765Z,99.9
2018-06-18T03:19:21.682Z,99.9
2018-06-18T03:20:21.547Z,99.9
2018-06-18T03:21:24.780Z,99.9
2018-06-18T03:22:24.643Z,99.9
2018-06-18T03:23:24.592Z,99.9
2018-06-18T03:24:24.472Z,99.9
2018-06-18T03:25:24.353Z,99.9
2018-06-18T03:26:24.208Z,99.9
2018-06-18T03:27:24.520Z,99.9
2018-06-18T03:28:24.625Z,99.9
2018-06-18T03:29:24.494Z,99.9
2018-06-18T03:30:24.374Z,99.9
2018-06-18T03:31:24.486Z,99.9
2018-06-18T03:32:24.354Z,99.9
2018-06-18T03:33:24.225Z,99.9
2018-06-18T03:34:24.094Z,99.9
2018-06-18T03:35:23.954Z,99.9
2018-06-18T03:36:23.833Z,99.9
2018-06-18T03:37:26.857Z,99.9
2018-06-18T03:38:26.769Z,99.9
2018-06-18T03:39:26.635Z,99.9
2018-06-18T03:40:26.529Z,99.9
2018-06-18T03:41:26.606Z,99.9
2018-06-18T03:42:26.457Z,99.9
2018-06-18T03:43:26.342Z,99.9
2018-06-18T03:44:26.221Z,99.9
2018-06-18T03:45:26.321Z,99.9
2018-06-18T03:46:26.185Z,99.9
2018-06-18T03:47:26.461Z,99.9
2018-06-18T03:48:26.335Z,99.9
2018-06-18T03:49:26.218Z,99.9
2018-06-18T03:50:26.098Z,99.9
2018-06-18T03:51:25.976Z,99.9
2018-06-18T03:52:25.840Z,99.9
2018-06-18T03:53:25.710Z,99.9
2018-06-18T03:54:25.618Z,99.9
2018-06-18T03:55:25.494Z,99.9
2018-06-18T03:56:25.375Z,99.9
2018-06-18T03:57:25.876Z,99.9
2018-06-18T03:58:25.766Z,99.9
2018-06-18T03:59:25.883Z,99.9
2018-06-18T04:00:25.762Z,99.9
2018-06-18T04:01:25.609Z,99.9
2018-06-18T04:02:25.469Z,99.9
2018-06-18T04:03:25.338Z,99.9
2018-06-18T04:04:25.210Z,99.9
2018-06-18T04:05:25.196Z,99.9
2018-06-18T04:06:25.188Z,99.9
2018-06-18T04:07:25.453Z,99.9
2018-06-18T04:08:25.318Z,99.9
2018-06-18T04:09:25.208Z,99.9
2018-06-18T04:10:25.093Z,99.9
2018-06-18T04:11:25.176Z,99.9
2018-06-18T04:12:25.070Z,99.9
2018-06-18T04:13:24.955Z,99.9
2018-06-18T04:14:24.835Z,99.9
2018-06-18T04:15:24.762Z,99.9
2018-06-18T04:16:24.649Z,99.9
2018-06-18T04:17:24.931Z,99.9
2018-06-18T04:18:24.808Z,99.9
2018-06-18T04:19:24.903Z,99.9
2018-06-18T04:20:25.043Z,99.9
2018-06-18T04:21:24.916Z,99.9
2018-06-18T04:22:24.776Z,99.9
2018-06-18T04:23:24.641Z,99.9
2018-06-18T04:24:24.512Z,99.9
2018-06-18T04:25:24.417Z,99.9
2018-06-18T04:26:24.276Z,99.9
2018-06-18T04:27:24.601Z,99.9
2018-06-18T04:28:24.482Z,99.9
2018-06-18T04:29:24.354Z,99.9
2018-06-18T04:30:24.249Z,99.9
2018-06-18T04:31:24.128Z,99.9
2018-06-18T04:32:24.006Z,99.9
2018-06-18T04:33:23.874Z,99.9
2018-06-18T04:34:23.766Z,99.9
2018-06-18T04:35:24.652Z,99.9
2018-06-18T04:36:24.510Z,99.9
2018-06-18T04:37:24.797Z,99.9
2018-06-18T04:38:24.682Z,99.9
2018-06-18T04:39:24.557Z,99.9
2018-06-18T04:40:24.466Z,99.9
2018-06-18T04:41:24.330Z,99.9
2018-06-18T04:42:24.196Z,99.9
2018-06-18T04:43:24.078Z,99.9
2018-06-18T04:44:23.959Z,99.9
2018-06-18T04:45:23.842Z,99.9
2018-06-18T04:46:23.938Z,99.9
2018-06-18T04:47:24.227Z,99.9
2018-06-18T04:48:24.103Z,99.9
2018-06-18T04:49:24.222Z,99.9
2018-06-18T04:50:24.148Z,99.9
2018-06-18T04:51:26.783Z,99.9
2018-06-18T04:52:26.630Z,99.9
2018-06-18T04:53:26.501Z,99.9
2018-06-18T04:54:26.376Z,99.9
2018-06-18T04:55:26.235Z,99.9
2018-06-18T04:56:26.454Z,99.9
2018-06-18T04:57:27.034Z,99.9
2018-06-18T04:58:26.961Z,99.9
2018-06-18T04:59:26.850Z,99.9
2018-06-18T05:00:26.746Z,99.9
2018-06-18T05:01:26.625Z,99.9
2018-06-18T05:02:26.511Z,99.9
2018-06-18T05:03:26.617Z,99.9
2018-06-18T05:04:26.503Z,99.9
2018-06-18T05:05:26.381Z,99.9
2018-06-18T05:06:26.263Z,99.9
2018-06-18T05:07:26.673Z,99.9
2018-06-18T05:08:26.604Z,99.9
2018-06-18T05:09:26.492Z,99.9
2018-06-18T05:10:26.349Z,99.9
2018-06-18T05:11:26.255Z,99.9
2018-06-18T05:12:26.142Z,99.9
2018-06-18T05:13:26.026Z,99.9
2018-06-18T05:14:25.920Z,99.9
2018-06-18T05:15:25.833Z,99.9
2018-06-18T05:16:25.706Z,99.9
2018-06-18T05:17:25.990Z,99.9
2018-06-18T05:18:25.882Z,99.9
2018-06-18T05:19:25.748Z,99.9
2018-06-18T05:20:25.879Z,99.9
2018-06-18T05:21:25.849Z,99.9
2018-06-18T05:22:25.716Z,99.9
2018-06-18T05:23:25.590Z,99.9
2018-06-18T05:24:25.465Z,99.9
2018-06-18T05:25:25.340Z,99.9
2018-06-18T05:26:25.367Z,99.9
2018-06-18T05:27:25.889Z,99.9
2018-06-18T05:28:25.770Z,99.9
2018-06-18T05:29:25.652Z,99.9
2018-06-18T05:30:25.546Z,99.9
2018-06-18T05:31:25.443Z,99.9
2018-06-18T05:32:25.366Z,99.9
2018-06-18T05:33:25.247Z,99.9
2018-06-18T05:34:25.142Z,99.9
2018-06-18T05:35:25.193Z,99.9
2018-06-18T05:36:25.384Z,99.9
2018-06-18T05:37:25.948Z,99.9
2018-06-18T05:38:25.809Z,99.9
2018-06-18T05:39:25.677Z,99.9
2018-06-18T05:40:25.559Z,99.9
2018-06-18T05:41:25.427Z,99.9
2018-06-18T05:42:25.302Z,99.9
2018-06-18T05:43:25.466Z,99.9
2018-06-18T05:44:25.467Z,99.9
2018-06-18T05:45:25.353Z,99.9
2018-06-18T05:46:25.234Z,99.9
2018-06-18T05:47:25.536Z,99.9
2018-06-18T05:48:25.662Z,99.9
2018-06-18T05:49:25.546Z,99.9
2018-06-18T05:50:25.714Z,99.9
2018-06-18T05:51:25.811Z,99.9
2018-06-18T05:52:25.714Z,99.9
2018-06-18T05:53:25.595Z,99.9
2018-06-18T05:54:25.736Z,99.9
2018-06-18T05:55:25.604Z,99.9
2018-06-18T05:56:25.506Z,99.9
2018-06-18T05:57:25.823Z,99.9
2018-06-18T05:58:25.952Z,99.9
2018-06-18T05:59:25.933Z,99.9
2018-06-18T06:00:25.857Z,99.9
2018-06-18T06:01:25.749Z,99.9
2018-06-18T06:02:25.636Z,99.9
2018-06-18T06:03:25.517Z,99.9
2018-06-18T06:04:25.415Z,99.9
2018-06-18T06:05:25.287Z,99.9
2018-06-18T06:06:25.166Z,99.9
2018-06-18T06:07:25.477Z,99.9
2018-06-18T06:08:25.350Z,99.9
2018-06-18T06:09:25.246Z,99.9
2018-06-18T06:10:25.125Z,99.9
2018-06-18T06:11:24.985Z,99.9
2018-06-18T06:12:24.844Z,99.9
2018-06-18T06:13:24.737Z,99.9
2018-06-18T06:14:24.637Z,99.9
2018-06-18T06:15:24.536Z,99.9
2018-06-18T06:16:24.430Z,99.9
2018-06-18T06:17:25.285Z,99.9
2018-06-18T06:18:25.228Z,99.9
2018-06-18T06:19:25.123Z,99.9
2018-06-18T06:20:25.003Z,99.9
2018-06-18T06:21:25.102Z,99.9
2018-06-18T06:22:25.141Z,99.9
2018-06-18T06:23:25.262Z,99.9
2018-06-18T06:24:28.979Z,99.9
2018-06-18T06:25:28.904Z,99.9
2018-06-18T06:26:28.779Z,99.9
2018-06-18T06:27:29.122Z,99.9
2018-06-18T06:28:28.989Z,99.9
2018-06-18T06:29:29.052Z,99.9
2018-06-18T06:30:28.947Z,99.9
2018-06-18T06:31:28.797Z,99.9
2018-06-18T06:32:28.675Z,99.9
2018-06-18T06:33:28.559Z,99.9
2018-06-18T06:34:28.481Z,99.9
2018-06-18T06:35:28.363Z,99.9
2018-06-18T06:36:28.242Z,99.9
2018-06-18T06:37:28.646Z,99.9
2018-06-18T06:38:28.884Z,99.9
2018-06-18T06:39:28.776Z,99.9
2018-06-18T06:40:28.637Z,99.9
2018-06-18T06:41:29.518Z,99.9
2018-06-18T06:42:29.418Z,99.9
2018-06-18T06:43:29.307Z,99.9
2018-06-18T06:44:29.203Z,99.9
2018-06-18T06:45:29.288Z,99.9
2018-06-18T06:46:29.155Z,99.9
2018-06-18T06:47:29.515Z,99.9
2018-06-18T06:48:29.640Z,99.9
2018-06-18T06:49:29.539Z,99.9
2018-06-18T06:50:29.399Z,99.9
2018-06-18T06:51:29.506Z,99.9
2018-06-18T06:52:29.373Z,99.9
2018-06-18T06:53:29.249Z,99.9
2018-06-18T06:54:29.142Z,99.9
2018-06-18T06:55:29.010Z,99.9
2018-06-18T06:56:28.880Z,99.9
2018-06-18T06:57:29.326Z,99.9
2018-06-18T06:58:29.184Z,99.9
2018-06-18T06:59:29.153Z,99.9
2018-06-18T07:00:29.038Z,99.9
2018-06-18T07:01:28.919Z,99.9
2018-06-18T07:02:28.794Z,99.9
2018-06-18T07:03:28.873Z,99.9
2018-06-18T07:04:28.764Z,99.9
2018-06-18T07:05:28.658Z,99.9
2018-06-18T07:06:28.537Z,98.9
2018-06-18T07:07:28.851Z,99.3
2018-06-18T07:08:28.960Z,99.5
2018-06-18T07:09:28.852Z,99.9
2018-06-18T07:10:28.722Z,99.9
2018-06-18T07:11:28.609Z,99.9
2018-06-18T07:12:29.493Z,99.9
2018-06-18T07:13:30.001Z,99.9
2018-06-18T07:14:30.298Z,99.9
2018-06-18T07:15:30.186Z,99.9
2018-06-18T07:16:30.059Z,99.9
2018-06-18T07:17:30.584Z,99.9
2018-06-18T07:18:30.461Z,99.9
2018-06-18T07:19:30.387Z,99.9
2018-06-18T07:20:30.302Z,99.9
2018-06-18T07:21:30.190Z,99.9
2018-06-18T07:22:32.896Z,99.9
2018-06-18T07:23:32.943Z,99.9
2018-06-18T07:24:32.821Z,99.9
2018-06-18T07:25:32.704Z,99.3
2018-06-18T07:26:33.583Z,99.9
2018-06-18T07:27:34.016Z,99.5
2018-06-18T07:28:33.920Z,99.9
2018-06-18T07:29:33.889Z,99.9
2018-06-18T07:30:34.786Z,99.9
2018-06-18T07:31:35.563Z,99.9
2018-06-18T07:32:35.658Z,99.9
2018-06-18T07:33:35.535Z,99.9
2018-06-18T07:34:35.435Z,99.9
2018-06-18T07:35:35.317Z,99.9
2018-06-18T07:36:35.206Z,99.9
2018-06-18T07:37:35.485Z,99.5
2018-06-18T07:38:35.701Z,99.5
2018-06-18T07:39:35.838Z,99.8
2018-06-18T07:40:35.701Z,99.9
2018-06-18T07:41:35.803Z,99.6
2018-06-18T07:42:35.692Z,99.2
2018-06-18T07:43:35.572Z,99.3
2018-06-18T07:44:35.457Z,99.3
2018-06-18T07:45:35.511Z,99.3
2018-06-18T07:46:35.530Z,99
2018-06-18T07:47:35.841Z,99.4
2018-06-18T07:48:35.739Z,99.2
2018-06-18T07:49:35.642Z,99.2
2018-06-18T07:50:35.522Z,99.2
2018-06-18T07:51:35.805Z,98.5
2018-06-18T07:52:35.997Z,99.3
2018-06-18T07:53:35.886Z,99.5
2018-06-18T07:54:35.766Z,99.5
2018-06-18T07:55:35.845Z,99.9
2018-06-18T07:56:35.732Z,99.9
2018-06-18T07:57:36.345Z,96.3
2018-06-18T07:58:36.399Z,98
2018-06-18T07:59:36.297Z,98.1
2018-06-18T08:00:36.177Z,98.6
2018-06-18T08:01:36.047Z,99.1
2018-06-18T08:02:35.913Z,98.7
2018-06-18T08:03:35.954Z,98.8
2018-06-18T08:04:40.205Z,97.6
2018-06-18T08:05:40.072Z,98.3
2018-06-18T08:06:39.973Z,98.4
2018-06-18T08:07:43.201Z,98.1
2018-06-18T08:08:43.070Z,97.3
2018-06-18T08:09:43.291Z,98.6
2018-06-18T08:10:43.686Z,96.5
2018-06-18T08:11:43.562Z,97.8
2018-06-18T08:12:43.452Z,96.4
2018-06-18T08:13:43.336Z,94.9
2018-06-18T08:14:43.241Z,95.8
2018-06-18T08:15:43.130Z,96.8
2018-06-18T08:16:43.033Z,95.9
2018-06-18T08:17:43.541Z,96.4
2018-06-18T08:18:46.499Z,95.6
2018-06-18T08:19:46.417Z,95.8
2018-06-18T08:20:46.324Z,94.3
2018-06-18T08:21:46.208Z,94.4
2018-06-18T08:22:47.085Z,95.6
2018-06-18T08:23:47.080Z,96.3
2018-06-18T08:24:47.183Z,95.4
2018-06-18T08:25:47.061Z,95
2018-06-18T08:26:47.943Z,94.4
2018-06-18T08:27:48.310Z,94
2018-06-18T08:28:48.224Z,93.6
2018-06-18T08:29:48.367Z,94.4
2018-06-18T08:30:48.267Z,93.4
2018-06-18T08:31:48.151Z,93.2
2018-06-18T08:32:49.013Z,93.6
2018-06-18T08:33:48.899Z,93.4
2018-06-18T08:34:49.005Z,93.1
2018-06-18T08:35:49.190Z,92.1
2018-06-18T08:36:49.076Z,92.1
2018-06-18T08:37:49.374Z,92.5
2018-06-18T08:38:50.266Z,93.2
2018-06-18T08:39:50.153Z,92.7
2018-06-18T08:40:50.041Z,92.4
2018-06-18T08:41:49.912Z,92.2
2018-06-18T08:42:49.796Z,92.1
2018-06-18T08:43:49.680Z,92.8
2018-06-18T08:44:49.542Z,92.1
2018-06-18T08:45:49.664Z,92.8
2018-06-18T08:46:49.594Z,93
2018-06-18T08:47:49.880Z,92.9
2018-06-18T08:48:49.770Z,92.8
2018-06-18T08:49:49.650Z,91.5
2018-06-18T08:50:49.535Z,92.5
2018-06-18T08:51:49.423Z,90.8
2018-06-18T08:52:49.288Z,91.1
2018-06-18T08:53:49.168Z,90.6
2018-06-18T08:54:49.085Z,91.3
2018-06-18T08:55:51.768Z,92.4
2018-06-18T08:56:51.632Z,91.6
2018-06-18T08:57:52.110Z,91.6
2018-06-18T08:58:52.749Z,91.9
2018-06-18T08:59:52.601Z,91.5
2018-06-18T09:00:52.504Z,92.1
2018-06-18T09:01:53.389Z,91.7
2018-06-18T09:02:53.253Z,91.3
2018-06-18T09:03:53.132Z,91.2
2018-06-18T09:04:55.765Z,91.4
2018-06-18T09:05:55.675Z,90.8
2018-06-18T09:06:55.560Z,91
2018-06-18T09:07:56.829Z,91.1
2018-06-18T09:08:56.714Z,91
2018-06-18T09:09:56.596Z,91.1
2018-06-18T09:10:56.481Z,90.8
2018-06-18T09:11:56.374Z,91
2018-06-18T09:12:56.244Z,90.5
2018-06-18T09:13:56.123Z,89.7
2018-06-18T09:14:56.048Z,89.6
2018-06-18T09:15:55.957Z,89.1
2018-06-18T09:16:55.863Z,90.8
2018-06-18T09:17:56.383Z,89.8
2018-06-18T09:18:56.255Z,89.8
2018-06-18T09:19:56.121Z,90.1
2018-06-18T09:20:55.989Z,90.1
2018-06-18T09:21:56.097Z,89.8
2018-06-18T09:22:55.966Z,90.1
2018-06-18T09:23:55.845Z,90.3
2018-06-18T09:24:55.765Z,88.2
2018-06-18T09:25:55.657Z,89.4
2018-06-18T09:26:55.553Z,89.9
2018-06-18T09:27:55.866Z,90.4
2018-06-18T09:28:55.733Z,90.4
2018-06-18T09:29:55.615Z,90
2018-06-18T09:30:55.478Z,90.5
2018-06-18T09:31:55.511Z,90
2018-06-18T09:32:55.593Z,89
2018-06-18T09:33:55.475Z,88
2018-06-18T09:34:55.334Z,89.6
2018-06-18T09:35:55.198Z,90.5
2018-06-18T09:36:55.104Z,90.1
2018-06-18T09:37:55.388Z,89.5
2018-06-18T09:38:57.869Z,87.8
2018-06-18T09:39:57.956Z,87.7
2018-06-18T09:40:57.843Z,90
2018-06-18T09:41:57.722Z,90.3
2018-06-18T09:42:58.588Z,88.7
2018-06-18T09:43:58.486Z,89.3
2018-06-18T09:44:58.376Z,90.2
2018-06-18T09:45:58.253Z,90.3
2018-06-18T09:46:58.183Z,90.2
2018-06-18T09:47:58.806Z,89.2
2018-06-18T09:48:58.746Z,87.2
2018-06-18T09:50:01.427Z,85.9
2018-06-18T09:51:01.321Z,88
2018-06-18T09:52:01.211Z,89
2018-06-18T09:53:03.067Z,87.6
2018-06-18T09:54:02.924Z,87.7
2018-06-18T09:55:02.809Z,86.2
2018-06-18T09:56:02.692Z,85.9
2018-06-18T09:57:05.318Z,86.8
2018-06-18T09:58:05.668Z,89
2018-06-18T09:59:08.346Z,89.9
2018-06-18T10:00:08.215Z,86.6
2018-06-18T10:01:08.080Z,87
2018-06-18T10:02:07.977Z,85.4
2018-06-18T10:03:08.088Z,85.8
2018-06-18T10:04:07.957Z,87.9
2018-06-18T10:05:07.829Z,89.3
2018-06-18T10:06:07.709Z,89.2
2018-06-18T10:07:07.616Z,85.3
2018-06-18T10:08:08.053Z,85.9
2018-06-18T10:09:07.973Z,87.2
2018-06-18T10:10:08.064Z,86.9
2018-06-18T10:11:07.948Z,89.5
2018-06-18T10:12:07.835Z,86.9
2018-06-18T10:13:07.705Z,86.9
2018-06-18T10:14:07.608Z,90.6
2018-06-18T10:15:07.498Z,90
2018-06-18T10:16:07.375Z,88.1
2018-06-18T10:17:07.273Z,87
2018-06-18T10:18:07.611Z,86
2018-06-18T10:19:07.500Z,85.6
2018-06-18T10:20:07.390Z,86.9
2018-06-18T10:21:07.272Z,86
2018-06-18T10:22:07.161Z,86.1
2018-06-18T10:23:07.069Z,85.5
2018-06-18T10:24:07.158Z,88
2018-06-18T10:25:07.188Z,87.8
2018-06-18T10:26:10.101Z,87.8
2018-06-18T10:27:10.003Z,87
2018-06-18T10:28:10.314Z,87.6
2018-06-18T10:29:10.432Z,87.2
2018-06-18T10:30:10.330Z,87.3
2018-06-18T10:31:10.217Z,87.1
2018-06-18T10:32:10.148Z,87.4
2018-06-18T10:33:10.053Z,88.3
2018-06-18T10:34:09.956Z,86.6
2018-06-18T10:35:09.824Z,85.5
2018-06-18T10:36:09.947Z,86.2
2018-06-18T10:37:09.855Z,86.7
2018-06-18T10:38:10.174Z,87.1
2018-06-18T10:39:12.885Z,87.4
2018-06-18T10:40:12.766Z,88.1
2018-06-18T10:41:12.641Z,86.3
2018-06-18T10:42:12.544Z,86.9
2018-06-18T10:43:12.409Z,86
2018-06-18T10:44:12.287Z,87.1
2018-06-18T10:45:12.158Z,87.5
2018-06-18T10:46:12.031Z,86.8
2018-06-18T10:47:11.910Z,87.7
2018-06-18T10:48:12.220Z,88.6
2018-06-18T10:49:12.154Z,88.3
2018-06-18T10:50:12.057Z,87.7
2018-06-18T10:51:11.973Z,85.7
2018-06-18T10:52:11.868Z,86.3
2018-06-18T10:53:11.760Z,86.9
2018-06-18T10:54:11.634Z,87.2
2018-06-18T10:55:11.511Z,87.1
2018-06-18T10:56:11.601Z,88.4
2018-06-18T10:57:11.549Z,87.6
2018-06-18T10:58:11.897Z,87.4
2018-06-18T10:59:11.986Z,88.1
2018-06-18T11:00:11.861Z,87.9
2018-06-18T11:01:11.747Z,87
2018-06-18T11:02:11.622Z,87.1
2018-06-18T11:03:11.522Z,87.1
2018-06-18T11:04:11.415Z,85.8
2018-06-18T11:05:11.326Z,86
2018-06-18T11:06:11.203Z,86.3
2018-06-18T11:07:11.101Z,86.5
2018-06-18T11:08:11.418Z,86.1
2018-06-18T11:09:11.306Z,86.3
2018-06-18T11:10:11.580Z,86.1
2018-06-18T11:11:11.546Z,86.8
2018-06-18T11:12:11.430Z,87
2018-06-18T11:13:11.326Z,86.9
2018-06-18T11:14:14.218Z,86.8
2018-06-18T11:15:14.099Z,86.8
2018-06-18T11:16:14.814Z,86.5
2018-06-18T11:17:17.552Z,86
2018-06-18T11:18:19.749Z,86.2
2018-06-18T11:19:19.664Z,86.2
2018-06-18T11:20:19.548Z,86.6
2018-06-18T11:21:19.419Z,86.9
2018-06-18T11:22:19.350Z,86.8
2018-06-18T11:23:19.261Z,87
2018-06-18T11:24:19.158Z,88.2
2018-06-18T11:25:19.442Z,88.2
2018-06-18T11:26:20.149Z,88
2018-06-18T11:27:20.639Z,88.4
2018-06-18T11:28:21.792Z,88.3
2018-06-18T11:29:21.840Z,89
2018-06-18T11:30:21.951Z,89.6
2018-06-18T11:31:22.202Z,89.7
2018-06-18T11:32:22.884Z,89.2
2018-06-18T11:33:22.937Z,88.5
2018-06-18T11:34:22.861Z,88.8
2018-06-18T11:35:22.728Z,88.7
2018-06-18T11:36:22.622Z,88.3
2018-06-18T11:37:22.726Z,87.5
2018-06-18T11:38:23.034Z,88.2
2018-06-18T11:39:23.363Z,88.4
2018-06-18T11:40:23.666Z,87.9
2018-06-18T11:41:23.564Z,87.7
2018-06-18T11:42:23.776Z,87.5
2018-06-18T11:43:23.719Z,87.3
2018-06-18T11:44:23.648Z,87.5
2018-06-18T11:45:23.525Z,87.3
2018-06-18T11:46:26.143Z,86.9
2018-06-18T11:47:26.017Z,86.5
2018-06-18T11:48:26.509Z,87.5
2018-06-18T11:49:26.709Z,86.2
2018-06-18T11:50:26.794Z,86.4
2018-06-18T11:51:26.684Z,86.7
2018-06-18T11:52:26.559Z,87.1
2018-06-18T11:53:26.513Z,86.9
2018-06-18T11:54:26.424Z,87.2
2018-06-18T11:55:26.314Z,85
2018-06-18T11:56:26.427Z,85.1
2018-06-18T11:57:26.306Z,85.4
2018-06-18T11:58:27.133Z,85.8
2018-06-18T11:59:30.116Z,85.6
2018-06-18T12:00:30.227Z,84.8
2018-06-18T12:01:30.477Z,84.4
2018-06-18T12:02:30.619Z,84.7
2018-06-18T12:03:30.506Z,85.1
2018-06-18T12:04:30.451Z,86.3
2018-06-18T12:05:30.327Z,85.6
2018-06-18T12:06:31.231Z,86.7
2018-06-18T12:07:31.111Z,85.2
2018-06-18T12:08:31.396Z,85.9
2018-06-18T12:09:31.521Z,85.7
2018-06-18T12:10:31.782Z,85.3
2018-06-18T12:11:31.674Z,85.4
2018-06-18T12:12:31.547Z,85.4
2018-06-18T12:13:31.662Z,84.5
2018-06-18T12:14:31.549Z,84.5
2018-06-18T12:15:31.437Z,84.7
2018-06-18T12:16:32.324Z,83.4
2018-06-18T12:17:32.226Z,84.3
2018-06-18T12:18:32.515Z,85.6
2018-06-18T12:19:32.401Z,85.4
2018-06-18T12:20:32.520Z,84.6
2018-06-18T12:21:32.409Z,85.2
2018-06-18T12:22:32.329Z,85.8
2018-06-18T12:23:32.222Z,85.2
2018-06-18T12:24:32.085Z,84.9
2018-06-18T12:25:31.986Z,85.2
2018-06-18T12:26:31.896Z,86
2018-06-18T12:27:31.768Z,86.8
2018-06-18T12:28:32.158Z,84.8
2018-06-18T12:29:35.861Z,84.1
2018-06-18T12:30:35.763Z,84
2018-06-18T12:31:35.648Z,84.7
2018-06-18T12:32:35.537Z,85.8
2018-06-18T12:33:38.028Z,85.9
2018-06-18T12:34:37.907Z,85.8
2018-06-18T12:35:37.804Z,86.2
2018-06-18T12:36:40.418Z,86.2
2018-06-18T12:37:40.306Z,85.9
2018-06-18T12:38:40.614Z,86
2018-06-18T12:39:41.493Z,87.1
2018-06-18T12:40:41.390Z,86
2018-06-18T12:41:41.262Z,84.2
2018-06-18T12:42:45.332Z,85.1
2018-06-18T12:43:45.215Z,84.5
2018-06-18T12:44:45.105Z,84.6
2018-06-18T12:45:45.027Z,85.1
2018-06-18T12:46:45.609Z,84.4
2018-06-18T12:47:45.851Z,84.5
2018-06-18T12:48:55.042Z,85.2
2018-06-18T12:49:54.920Z,85.5
2018-06-18T12:50:54.824Z,85
2018-06-18T12:51:54.721Z,85.1
2018-06-18T12:52:54.590Z,85.6
2018-06-18T12:53:54.461Z,85.7
2018-06-18T12:54:54.569Z,85.3
2018-06-18T12:55:54.471Z,85.9
2018-06-18T12:56:54.345Z,86.3
2018-06-18T12:57:54.222Z,86
2018-06-18T12:58:54.579Z,85.8
2018-06-18T12:59:54.707Z,85.5
2018-06-18T13:00:55.062Z,85.8
2018-06-18T13:01:55.184Z,85.9
2018-06-18T13:02:55.299Z,86.5
2018-06-18T13:03:55.430Z,86.9
2018-06-18T13:04:55.553Z,86.5
2018-06-18T13:05:55.711Z,87
2018-06-18T13:06:55.835Z,87.5
2018-06-18T13:07:55.991Z,87.2
2018-06-18T13:08:56.760Z,87.2
2018-06-18T13:09:56.889Z,87.3
2018-06-18T13:11:00.052Z,87.7
2018-06-18T13:12:00.184Z,87.4
2018-06-18T13:13:00.325Z,87
2018-06-18T13:14:00.682Z,86.9
2018-06-18T13:15:00.817Z,87.5
2018-06-18T13:16:00.975Z,87.5
2018-06-18T13:17:01.346Z,87
2018-06-18T13:18:01.474Z,86.6
2018-06-18T13:19:02.230Z,87
2018-06-18T13:20:02.387Z,87.4
2018-06-18T13:21:02.555Z,87.6
2018-06-18T13:22:02.689Z,86.9
2018-06-18T13:23:05.551Z,86.9
2018-06-18T13:24:05.683Z,86.8